This is the latest recevied weather packets stored in our database for station/object MMMX. If no packets are shown the sender has not sent any weather packets the latest 10 day(s).
| Time | Temp. | Humidity | Pressure | Rain* | Wind** | Luminosity | Snow |
|---|---|---|---|---|---|---|---|
| 1778129621 | 18.89° C | 55% | 1027.4 hPa | - | - | - | - |
| 1778129026 | 18.89° C | 55% | 1027.4 hPa | - | - | - | - |
| 1778128425 | 18.89° C | 55% | 1027.4 hPa | - | - | - | - |
| 1778127821 | 18.89° C | 55% | 1027.4 hPa | - | - | - | - |
| 1778127224 | 18.89° C | 55% | 1027.4 hPa | - | - | - | - |
| 1778126749 | 18.89° C | 55% | 1027.4 hPa | - | - | - | - |
| 1778126022 | 18.89° C | 55% | 1027.1 hPa | - | - | - | - |
| 1778125548 | 18.89° C | 55% | 1027.1 hPa | - | - | - | - |
| 1778124824 | 20.56° C | 49% | 1026.4 hPa | - | - | - | - |
| 1778124225 | 20.56° C | 49% | 1026.4 hPa | - | - | - | - |
| 1778123626 | 20.56° C | 49% | 1026.4 hPa | - | - | - | - |
| 1778123024 | 20.56° C | 49% | 1026.4 hPa | - | - | - | - |
| 1778122425 | 21.67° C | 43% | 1026.8 hPa | - | - | - | - |
| 1778121823 | 23.89° C | 31% | 1025.1 hPa | - | - | - | - |
| 1778121225 | 23.89° C | 31% | 1025.1 hPa | - | - | - | - |
| 1778120620 | 23.89° C | 31% | 1025.1 hPa | - | - | - | - |
| 1778120023 | 23.89° C | 31% | 1025.1 hPa | - | - | - | - |
| 1778119425 | 23.89° C | 31% | 1025.1 hPa | - | - | - | - |
| 1778118825 | 25° C | 27% | 1023.7 hPa | - | - | - | - |
| 1778118224 | 25° C | 27% | 1023.7 hPa | - | - | - | - |
| 1778117625 | 25° C | 27% | 1023.7 hPa | - | - | - | - |
| 1778117025 | 25° C | 27% | 1023.7 hPa | - | - | - | - |
| 1778116426 | 25° C | 27% | 1023.7 hPa | - | - | - | - |
| 1778115825 | - | - | 1016.9 hPa | - | - | - | - |
| 1778115226 | 27.78° C | 28% | 1021.7 hPa | - | - | - | - |
* Rain since midnight (hover to see other rain measurements)
** Current wind speed in m/s (hover to see current wind gust speed)